Silver Lake, WI

12:20 PM CDT on September 01, 2015 (GMT -0500)
KWITWINL2 | | Change Station
CLOSE
Current Station
Personal Weather Station
Location: Bassett, WI
Elevation: 849 ft
Nearby Weather Stations

Elev 849 ft 42.53 °N, 88.21 °W | Updated 9 minutes ago

Clear
Clear
83.8 °F
Feels Like 91 °F
N
7.0
Wind Variable Wind from SW
Gusts 10.0 mph

Today
High -- | Low -- °F
--% Chance of Precip.
Yesterday
High -- | Low -- °F
Precip. -- in
6:17 AM 7:27 PM
Waning Gibbous, 87% visible
Pressure 30.02 in
Visibility 10.0 miles
Clouds Clear
Heat Index 91 °F
Dew Point 75 °F
Humidity 74%
Rainfall 0.00 in
Snow Depth Not available.
UV 8 out of 12
Pollen 9.60 out of 12
Air Quality Not available.
Flu Activity Not available.
METAR KBUU 011655Z AUTO 20007KT 10SM CLR 29/20 A3002 RMK AO2 T02900201
Pressure 30.02 in
Visibility 10.0 miles
Clouds Clear
Heat Index 91 °F
Dew Point 75 °F
Humidity 74%
Rainfall 0.00 in
Snow Depth Not available.
UV 8 out of 12
Pollen 9.60 out of 12
Air Quality Not available.
Flu Activity Not available.
METAR KBUU 011655Z AUTO 20007KT 10SM CLR 29/20 A3002 RMK AO2 T02900201

10-Day Weather Forecast

×

Almanac

Astronomy

Sep. 01, 2015 Rise Set
Actual Time
Civil Twilight
Nautical Twilight
Astronomical Twilight
Moon
Length of Visible Light
Length of Day
Tomorrow will be .
, % of the Moon is Illuminated

Today's Extremes

State Highs State Lows

Community

WunderPhotos

Upload Photos

1,851,567 photos uploaded!

WunderBlogs® & News

Nearby

Air Quality

  Air Quality AQ Index Pollutant
Not available.

Snow Depth

Station Depth Elevation

Earthquake Activity

City Distance Mag. Time & Date
Minimum magnitude displayed is 2.5.

Coastal Water Temperatures

Place Temperature

Stations

Nearby Weather Stations

Station Location Temp. Windchill Dew Point Humidity Wind Precip. Elev Updated Type